MSC Corinna — 3FPI7 — position and weather

sailwx.info

Track history (hours):
 
Tides and Currents Weather Stations Pressure Air Temp Water Temp Dewpoint Dewpoint Depression Visibility Wind Speed Wind Dir Waves Ship Positions

MSC Corinna

Last reported at 2017-Nov-12 07:51 UTC. Time now 2017-Nov-18 06:43 UTC.
Position N 24°15' W 112°50'.

Length 228 m; draft 8.5 m.

Type: Tanker. MMSI: 356696000.

Date/timePositionNaut miles runAvg speedWind from/ knotsBaromVisibWave heightAir tempDewpointWater temp
2017-Nov-12 07:51N 24°15' W 112°50'13613.7
2017-Nov-11 21:55N 26°05' W 114°20'13513.9
2017-Nov-11 12:14N 27°53' W 115°50'27013.9
2017-Nov-10 16:46N 32°05' W 117°39'2913.5
2017-Nov-10 14:38N 32°32' W 117°51'213.6
2017-Nov-10 14:30N 32°34' W 117°51'1913.6
2017-Nov-10 13:05N 32°53' W 117°57'113.9
2017-Nov-10 13:00N 32°54' W 117°57'713.5
2017-Nov-10 12:31N 33°00' W 117°60'611.8
2017-Nov-10 12:00N 33°06' W 118°02'611.1
2017-Nov-10 11:30N 33°11' W 118°04'611.2
2017-Nov-10 11:00N 33°17' W 118°06'1911.8
2017-Nov-10 09:25N 33°34' W 118°13'511.6
2017-Nov-10 08:57N 33°40' W 118°13'  
2017-Nov-07 12:37N 33°45' W 118°16'0 0.0
2017-Nov-07 12:30N 33°45' W 118°16'3 2.4
2017-Nov-07 11:13N 33°43' W 118°13'1 5.4
2017-Nov-07 11:00N 33°44' W 118°12'2 0.5
2017-Nov-07 07:54N 33°44' W 118°10'0 0.1
2017-Nov-07 07:24N 33°44' W 118°10'0 0.0
2017-Nov-07 06:57N 33°44' W 118°10'0 0.0
2017-Nov-07 02:42N 33°44' W 118°10'0 0.0
2017-Nov-07 02:30N 33°44' W 118°10'0 0.0
2017-Nov-07 00:18N 33°44' W 118°10'0 0.0
2017-Nov-06 21:51N 33°44' W 118°10'  
Track history (hours):
 
Tides and Currents Weather Stations Pressure Air Temp Water Temp Dewpoint Dewpoint Depression Visibility Wind Speed Wind Dir Waves Ship Positions

MSC Corinna

Last reported at 2017-Nov-12 07:51 UTC. Time now 2017-Nov-18 06:43 UTC.
Position N 24°15' W 112°50'.

Length 228 m; draft 8.5 m.

Type: Tanker. MMSI: 356696000.

Date/timePositionNaut miles runAvg speedWind from/ knotsBaromVisibWave heightAir tempDewpointWater temp
2017-Nov-12 07:51N 24°15' W 112°50'13613.7
2017-Nov-11 21:55N 26°05' W 114°20'13513.9
2017-Nov-11 12:14N 27°53' W 115°50'27013.9
2017-Nov-10 16:46N 32°05' W 117°39'2913.5
2017-Nov-10 14:38N 32°32' W 117°51'213.6
2017-Nov-10 14:30N 32°34' W 117°51'1913.6
2017-Nov-10 13:05N 32°53' W 117°57'113.9
2017-Nov-10 13:00N 32°54' W 117°57'713.5
2017-Nov-10 12:31N 33°00' W 117°60'611.8
2017-Nov-10 12:00N 33°06' W 118°02'611.1
2017-Nov-10 11:30N 33°11' W 118°04'611.2
2017-Nov-10 11:00N 33°17' W 118°06'1911.8
2017-Nov-10 09:25N 33°34' W 118°13'511.6
2017-Nov-10 08:57N 33°40' W 118°13'  
2017-Nov-07 12:37N 33°45' W 118°16'0 0.0
2017-Nov-07 12:30N 33°45' W 118°16'3 2.4
2017-Nov-07 11:13N 33°43' W 118°13'1 5.4
2017-Nov-07 11:00N 33°44' W 118°12'2 0.5
2017-Nov-07 07:54N 33°44' W 118°10'0 0.1
2017-Nov-07 07:24N 33°44' W 118°10'0 0.0
2017-Nov-07 06:57N 33°44' W 118°10'0 0.0
2017-Nov-07 02:42N 33°44' W 118°10'0 0.0
2017-Nov-07 02:30N 33°44' W 118°10'0 0.0
2017-Nov-07 00:18N 33°44' W 118°10'0 0.0
2017-Nov-06 21:51N 33°44' W 118°10'  

Dump ship's entire track history